Terminal Aerodrome Forecast
Issued by NWS

Home | Current Version | Previous Version | Graphics & Text | Print | Product List | Glossary On
Versions: 1 2 3 4 5 6 7 8 9 10 11 12 13 14 15 16 17 18 19 20 21 22 23 24 25 26 27 28 29 30 31 32
000
FTUS43 KLOT 201900 AAA
TAFMDW
TAF AMD
KMDW 201959Z 2020/2118 21008KT P6SM SCT050
     FM202200 10009KT P6SM FEW060 SCT250
     FM210200 16004KT P6SM SCT250
     FM211500 19010KT P6SM FEW040=

USA.gov is the U.S. government's official web portal to all federal, state and local government web resources and services.